Havbugvin — XPYL — position and weather

sailwx.info

Track history (hours):
 
Tides and Currents Weather Stations Pressure Air Temp Water Temp Dewpoint Dewpoint Depression Visibility Wind Speed Wind Dir Waves Ship Positions

Havbugvin

Last reported at 2017-Oct-15 20:49 UTC. Time now 2017-Oct-23 04:41 UTC.
Position N 61°46' W 007°29'.

Length 38 m.

Type: Fishing. MMSI: 231181000.

Date/timePositionNaut miles runAvg speedWind from/ knotsBaromVisibWave heightAir tempDewpointWater temp
2017-Oct-15 20:49N 61°46' W 007°29'3 8.6
2017-Oct-15 20:31N 61°48' W 007°24'4 8.4
2017-Oct-15 20:01N 61°50' W 007°17'4 8.3
2017-Oct-15 19:31N 61°52' W 007°09'4 8.1
2017-Oct-15 19:01N 61°55' W 007°02'4 6.5
2017-Oct-15 18:26N 61°55' W 006°54'2 5.8
2017-Oct-15 18:00N 61°55' W 006°49'3 6.5
2017-Oct-15 17:31N 61°57' W 006°43'4 7.3
2017-Oct-15 17:01N 62°00' W 006°46'0 0.0
2017-Oct-15 16:31N 62°00' W 006°46'0 0.0
2017-Oct-15 16:01N 62°00' W 006°46'0 0.0
2017-Oct-15 15:30N 62°00' W 006°46'0 0.0
2017-Oct-15 15:01N 62°00' W 006°46'0 0.0
2017-Oct-15 14:00N 62°00' W 006°46'0 0.0
2017-Oct-15 13:30N 62°00' W 006°46'0 0.0
2017-Oct-15 13:01N 62°00' W 006°46'0 0.0
2017-Oct-15 12:31N 62°00' W 006°46'0 0.0
2017-Oct-15 12:00N 62°00' W 006°46'0 0.0
2017-Oct-15 11:30N 62°00' W 006°46'0 0.0
2017-Oct-15 11:01N 62°00' W 006°46'0 0.0
2017-Oct-15 10:31N 62°00' W 006°46'0 0.0
2017-Oct-15 10:01N 62°00' W 006°46'0 0.0
2017-Oct-15 09:31N 62°00' W 006°46'0 0.0
2017-Oct-15 09:01N 62°00' W 006°46'0 0.0
2017-Oct-15 08:31N 62°00' W 006°46'0 0.0
2017-Oct-15 08:01N 62°00' W 006°46'0 0.0
2017-Oct-15 07:31N 62°00' W 006°46'0 0.0
2017-Oct-15 07:01N 62°00' W 006°46'0 0.0
2017-Oct-15 06:31N 62°00' W 006°46'0 0.0
2017-Oct-15 06:01N 62°00' W 006°46'0 0.0
2017-Oct-15 05:31N 62°00' W 006°46'0 0.0
2017-Oct-15 05:01N 62°00' W 006°46'0 0.0
2017-Oct-15 04:31N 62°00' W 006°46'0 0.0
2017-Oct-15 04:01N 62°00' W 006°46'0 0.0
2017-Oct-15 03:31N 62°00' W 006°46'0 0.0
2017-Oct-15 03:01N 62°00' W 006°46'0 0.0
2017-Oct-15 02:31N 62°00' W 006°46'0 0.0
2017-Oct-15 02:00N 62°00' W 006°46'  
Track history (hours):
 
Tides and Currents Weather Stations Pressure Air Temp Water Temp Dewpoint Dewpoint Depression Visibility Wind Speed Wind Dir Waves Ship Positions

Havbugvin

Last reported at 2017-Oct-15 20:49 UTC. Time now 2017-Oct-23 04:41 UTC.
Position N 61°46' W 007°29'.

Length 38 m.

Type: Fishing. MMSI: 231181000.

Date/timePositionNaut miles runAvg speedWind from/ knotsBaromVisibWave heightAir tempDewpointWater temp
2017-Oct-15 20:49N 61°46' W 007°29'3 8.6
2017-Oct-15 20:31N 61°48' W 007°24'4 8.4
2017-Oct-15 20:01N 61°50' W 007°17'4 8.3
2017-Oct-15 19:31N 61°52' W 007°09'4 8.1
2017-Oct-15 19:01N 61°55' W 007°02'4 6.5
2017-Oct-15 18:26N 61°55' W 006°54'2 5.8
2017-Oct-15 18:00N 61°55' W 006°49'3 6.5
2017-Oct-15 17:31N 61°57' W 006°43'4 7.3
2017-Oct-15 17:01N 62°00' W 006°46'0 0.0
2017-Oct-15 16:31N 62°00' W 006°46'0 0.0
2017-Oct-15 16:01N 62°00' W 006°46'0 0.0
2017-Oct-15 15:30N 62°00' W 006°46'0 0.0
2017-Oct-15 15:01N 62°00' W 006°46'0 0.0
2017-Oct-15 14:00N 62°00' W 006°46'0 0.0
2017-Oct-15 13:30N 62°00' W 006°46'0 0.0
2017-Oct-15 13:01N 62°00' W 006°46'0 0.0
2017-Oct-15 12:31N 62°00' W 006°46'0 0.0
2017-Oct-15 12:00N 62°00' W 006°46'0 0.0
2017-Oct-15 11:30N 62°00' W 006°46'0 0.0
2017-Oct-15 11:01N 62°00' W 006°46'0 0.0
2017-Oct-15 10:31N 62°00' W 006°46'0 0.0
2017-Oct-15 10:01N 62°00' W 006°46'0 0.0
2017-Oct-15 09:31N 62°00' W 006°46'0 0.0
2017-Oct-15 09:01N 62°00' W 006°46'0 0.0
2017-Oct-15 08:31N 62°00' W 006°46'0 0.0
2017-Oct-15 08:01N 62°00' W 006°46'0 0.0
2017-Oct-15 07:31N 62°00' W 006°46'0 0.0
2017-Oct-15 07:01N 62°00' W 006°46'0 0.0
2017-Oct-15 06:31N 62°00' W 006°46'0 0.0
2017-Oct-15 06:01N 62°00' W 006°46'0 0.0
2017-Oct-15 05:31N 62°00' W 006°46'0 0.0
2017-Oct-15 05:01N 62°00' W 006°46'0 0.0
2017-Oct-15 04:31N 62°00' W 006°46'0 0.0
2017-Oct-15 04:01N 62°00' W 006°46'0 0.0
2017-Oct-15 03:31N 62°00' W 006°46'0 0.0
2017-Oct-15 03:01N 62°00' W 006°46'0 0.0
2017-Oct-15 02:31N 62°00' W 006°46'0 0.0
2017-Oct-15 02:00N 62°00' W 006°46'  

Dump ship's entire track history